createdAt,value
2018-02-07T00:00:06.741Z,99859.14
2018-02-07T00:02:34.205Z,99858.53
2018-02-07T00:05:01.678Z,99864.53
2018-02-07T00:07:29.134Z,99867.20
2018-02-07T00:09:56.623Z,99861.88
2018-02-07T00:12:24.083Z,99860.67
2018-02-07T00:14:51.562Z,99858.22
2018-02-07T00:17:19.032Z,99850.58
2018-02-07T00:19:46.506Z,99848.94
2018-02-07T00:22:14.682Z,99847.40
2018-02-07T00:24:42.173Z,99848.95
2018-02-07T00:27:09.634Z,99844.78
2018-02-07T00:29:37.114Z,99848.37
2018-02-07T00:32:04.570Z,99844.39
2018-02-07T00:34:32.042Z,99845.35
2018-02-07T00:36:59.515Z,99847.55
2018-02-07T00:39:27.011Z,99844.67
2018-02-07T00:41:54.474Z,99844.31
2018-02-07T00:44:21.930Z,99843.53
2018-02-07T00:46:49.407Z,99838.11
2018-02-07T00:49:16.863Z,99835.44
2018-02-07T00:51:44.487Z,99839.31
2018-02-07T00:54:11.958Z,99851.13
2018-02-07T00:56:39.434Z,99854.80
2018-02-07T00:59:06.890Z,99850.48
2018-02-07T01:01:34.371Z,99860.60
2018-02-07T01:04:01.827Z,99858.97
2018-02-07T01:06:29.308Z,99851.60
2018-02-07T01:08:56.772Z,99859.05
2018-02-07T01:11:24.251Z,99849.47
2018-02-07T01:13:51.715Z,99851.95
2018-02-07T01:16:19.191Z,99861.91
2018-02-07T01:18:46.654Z,99859.55
2018-02-07T01:21:14.138Z,99859.58
2018-02-07T01:23:41.595Z,99862.74
2018-02-07T01:26:09.083Z,99863.77
2018-02-07T01:28:36.546Z,99865.68
2018-02-07T01:31:04.032Z,99864.77
2018-02-07T01:33:31.495Z,99866.36
2018-02-07T01:35:58.969Z,99868.23
2018-02-07T01:38:26.439Z,99874.89
2018-02-07T01:40:53.914Z,99875.00
2018-02-07T01:43:21.384Z,99874.78
2018-02-07T01:45:48.866Z,99873.24
2018-02-07T01:48:16.328Z,99861.55
2018-02-07T01:50:43.810Z,99868.22
2018-02-07T01:53:11.281Z,99879.66
2018-02-07T01:55:38.768Z,99877.47
2018-02-07T01:58:06.234Z,99872.22
2018-02-07T02:00:33.749Z,99874.09
2018-02-07T02:03:01.208Z,99879.22
2018-02-07T02:05:28.662Z,99869.62
2018-02-07T02:07:56.142Z,99873.41
2018-02-07T02:10:23.615Z,99865.56
2018-02-07T02:12:51.103Z,99866.93
2018-02-07T02:15:18.640Z,99863.64
2018-02-07T02:17:46.120Z,99863.94
2018-02-07T02:20:13.579Z,99868.11
2018-02-07T02:22:41.054Z,99862.00
2018-02-07T02:25:08.522Z,99856.61
2018-02-07T02:27:36.002Z,99851.17
2018-02-07T02:30:03.463Z,99853.91
2018-02-07T02:32:30.951Z,99849.54
2018-02-07T02:34:58.413Z,99847.35
2018-02-07T02:37:25.891Z,99841.68
2018-02-07T02:39:53.355Z,99841.13
2018-02-07T02:42:20.835Z,99840.34
2018-02-07T02:44:48.307Z,99843.94
2018-02-07T02:47:15.791Z,99850.44
2018-02-07T02:49:43.259Z,99843.39
2018-02-07T02:52:10.752Z,99853.41
2018-02-07T02:54:38.211Z,99858.53
2018-02-07T02:57:05.699Z,99859.99
2018-02-07T02:59:33.163Z,99854.02
2018-02-07T03:02:00.646Z,99862.17
2018-02-07T03:04:28.110Z,99866.73
2018-02-07T03:06:55.592Z,99865.88
2018-02-07T03:09:23.054Z,99867.56
2018-02-07T03:11:50.555Z,99864.25
2018-02-07T03:14:18.018Z,99863.34
2018-02-07T03:16:45.495Z,99862.70
2018-02-07T03:19:12.957Z,99855.56
2018-02-07T03:21:40.439Z,99855.08
2018-02-07T03:24:07.941Z,99850.25
2018-02-07T03:26:35.408Z,99858.73
2018-02-07T03:29:02.888Z,99858.86
2018-02-07T03:31:30.352Z,99856.94
2018-02-07T03:33:57.938Z,99854.41
2018-02-07T03:36:25.403Z,99860.99
2018-02-07T03:38:52.894Z,99862.95
2018-02-07T03:41:20.362Z,99862.05
2018-02-07T03:43:47.850Z,99865.19
2018-02-07T03:46:15.307Z,99860.16
2018-02-07T03:48:42.788Z,99857.71
2018-02-07T03:51:10.247Z,99857.36
2018-02-07T03:53:37.722Z,99868.41
2018-02-07T03:56:05.178Z,99864.28
2018-02-07T03:58:32.668Z,99863.23
2018-02-07T04:01:00.131Z,99864.42
2018-02-07T04:03:27.619Z,99865.95
2018-02-07T04:05:55.085Z,99870.14
2018-02-07T04:08:22.572Z,99869.17
2018-02-07T04:10:50.037Z,99876.09
2018-02-07T04:13:17.523Z,99872.52
2018-02-07T04:15:44.988Z,99872.66
2018-02-07T04:18:12.463Z,99871.96
2018-02-07T04:20:39.919Z,99872.43
2018-02-07T04:23:07.395Z,99880.19
2018-02-07T04:25:34.867Z,99872.78
2018-02-07T04:28:02.419Z,99882.42
2018-02-07T04:30:29.879Z,99882.26
2018-02-07T04:32:57.361Z,99886.28
2018-02-07T04:35:24.830Z,99880.42
2018-02-07T04:37:52.310Z,99877.14
2018-02-07T04:40:19.770Z,99879.03
2018-02-07T04:42:47.250Z,99881.27
2018-02-07T04:45:14.730Z,99879.72
2018-02-07T04:47:42.195Z,99874.25
2018-02-07T04:50:09.679Z,99873.20
2018-02-07T04:52:37.143Z,99877.27
2018-02-07T04:55:04.626Z,99873.33
2018-02-07T04:57:32.086Z,99878.22
2018-02-07T04:59:59.570Z,99874.77
2018-02-07T05:02:27.026Z,99876.59
2018-02-07T05:04:54.520Z,99882.91
2018-02-07T05:07:21.990Z,99880.80
2018-02-07T05:09:49.471Z,99884.66
2018-02-07T05:12:16.935Z,99888.53
2018-02-07T05:14:44.418Z,99890.02
2018-02-07T05:17:11.883Z,99895.75
2018-02-07T05:19:39.377Z,99897.53
2018-02-07T05:22:06.846Z,99898.66
2018-02-07T05:24:34.327Z,99898.19
2018-02-07T05:27:01.795Z,99899.06
2018-02-07T05:29:29.270Z,99899.10
2018-02-07T05:31:56.740Z,99907.16
2018-02-07T05:34:24.227Z,99908.73
2018-02-07T05:36:51.687Z,99908.41
2018-02-07T05:39:19.177Z,99914.63
2018-02-07T05:41:46.645Z,99914.85
2018-02-07T05:44:14.127Z,99911.28
2018-02-07T05:46:41.586Z,99909.95
2018-02-07T05:49:09.063Z,99910.59
2018-02-07T05:51:36.519Z,99904.72
2018-02-07T05:54:04.009Z,99911.34
2018-02-07T05:56:31.466Z,99909.68
2018-02-07T05:58:58.947Z,99918.14
2018-02-07T06:01:26.410Z,99917.95
2018-02-07T06:03:53.899Z,99919.02
2018-02-07T06:06:21.367Z,99914.89
2018-02-07T06:08:48.846Z,99912.70
2018-02-07T06:11:16.325Z,99913.44
2018-02-07T06:13:43.808Z,99916.36
2018-02-07T06:16:11.294Z,99920.50
2018-02-07T06:18:38.763Z,99926.68
2018-02-07T06:21:06.243Z,99928.01
2018-02-07T06:23:33.699Z,99925.04
2018-02-07T06:26:01.215Z,99929.18
2018-02-07T06:28:28.678Z,99926.14
2018-02-07T06:30:56.158Z,99936.51
2018-02-07T06:33:23.623Z,99928.88
2018-02-07T06:35:51.102Z,99932.14
2018-02-07T06:38:18.590Z,99936.47
2018-02-07T06:40:46.062Z,99936.94
2018-02-07T06:43:13.527Z,99935.61
2018-02-07T06:45:41.011Z,99932.80
2018-02-07T06:48:08.474Z,99940.28
2018-02-07T06:50:35.950Z,99946.72
2018-02-07T06:53:03.415Z,99947.00
2018-02-07T06:55:30.899Z,99945.17
2018-02-07T06:57:58.454Z,99949.91
2018-02-07T07:00:25.943Z,99957.36
2018-02-07T07:02:53.418Z,99959.45
2018-02-07T07:05:20.894Z,99959.17
2018-02-07T07:07:48.358Z,99961.45
2018-02-07T07:10:15.844Z,99960.20
2018-02-07T07:12:43.313Z,99964.64
2018-02-07T07:15:10.815Z,99960.28
2018-02-07T07:17:38.270Z,99974.09
2018-02-07T07:20:05.752Z,99976.33
2018-02-07T07:22:33.215Z,99974.36
2018-02-07T07:25:00.703Z,99969.58
2018-02-07T07:27:28.174Z,99975.84
2018-02-07T07:29:55.660Z,99976.71
2018-02-07T07:32:23.118Z,99978.30
2018-02-07T07:34:50.578Z,99986.02
2018-02-07T07:37:18.063Z,99989.80
2018-02-07T07:39:45.536Z,99988.29
2018-02-07T07:42:13.019Z,99991.20
2018-02-07T07:44:40.478Z,99994.66
2018-02-07T07:47:07.958Z,99997.91
2018-02-07T07:49:35.417Z,99997.64
2018-02-07T07:52:02.911Z,99994.11
2018-02-07T07:54:30.382Z,99995.20
2018-02-07T07:56:57.875Z,99996.89
2018-02-07T07:59:25.329Z,99990.46
2018-02-07T08:01:52.806Z,99995.75
2018-02-07T08:04:20.275Z,100007.50
2018-02-07T08:06:47.837Z,100017.80
2018-02-07T08:09:15.295Z,100016.20
2018-02-07T08:11:42.788Z,100014.95
2018-02-07T08:14:10.252Z,100018.27
2018-02-07T08:16:37.739Z,100023.70
2018-02-07T08:19:05.207Z,100026.73
2018-02-07T08:21:32.819Z,100031.34
2018-02-07T08:24:00.291Z,100028.52
2018-02-07T08:26:27.775Z,100032.53
2018-02-07T08:28:55.251Z,100024.66
2018-02-07T08:31:22.751Z,100027.31
2018-02-07T08:33:50.210Z,100032.14
2018-02-07T08:36:17.699Z,100032.53
2018-02-07T08:38:45.166Z,100032.20
2018-02-07T08:41:12.646Z,100033.77
2018-02-07T08:43:40.102Z,100024.88
2018-02-07T08:46:07.589Z,100037.37
2018-02-07T08:48:35.051Z,100037.14
2018-02-07T08:51:02.540Z,100038.45
2018-02-07T08:53:30.005Z,100036.85
2018-02-07T08:55:57.486Z,100044.66
2018-02-07T08:58:24.963Z,100048.83
2018-02-07T09:00:52.430Z,100051.08
2018-02-07T09:03:19.915Z,100047.64
2018-02-07T09:05:47.387Z,100061.02
2018-02-07T09:08:14.879Z,100050.52
2018-02-07T09:10:42.352Z,100057.58
2018-02-07T09:13:09.832Z,100061.23
2018-02-07T09:15:37.301Z,100054.95
2018-02-07T09:18:04.829Z,100057.17
2018-02-07T09:20:32.279Z,100056.31
2018-02-07T09:22:59.762Z,100062.98
2018-02-07T09:25:27.242Z,100061.66
2018-02-07T09:27:54.746Z,100067.43
2018-02-07T09:30:22.250Z,100068.84
2018-02-07T09:32:49.744Z,100064.84
2018-02-07T09:35:17.222Z,100081.80
2018-02-07T09:37:44.706Z,100092.51
2018-02-07T09:40:12.179Z,100092.81
2018-02-07T09:42:39.663Z,100100.45
2018-02-07T09:45:07.123Z,100095.53
2018-02-07T09:47:34.615Z,100094.25
2018-02-07T09:50:02.083Z,100096.42
2018-02-07T09:52:29.575Z,100101.73
2018-02-07T09:54:57.063Z,100099.99
2018-02-07T09:57:24.551Z,100103.89
2018-02-07T09:59:52.010Z,100105.34
2018-02-07T10:02:19.502Z,100109.34
2018-02-07T10:04:46.967Z,100109.41
2018-02-07T10:07:14.458Z,100102.91
2018-02-07T10:09:41.927Z,100115.69
2018-02-07T10:12:09.414Z,100117.39
2018-02-07T10:14:36.874Z,100118.94
2018-02-07T10:17:04.383Z,100117.88
2018-02-07T10:19:31.850Z,100117.80
2018-02-07T10:21:59.326Z,100123.13
2018-02-07T10:24:26.862Z,100119.34
2018-02-07T10:26:54.340Z,100123.19
2018-02-07T10:29:21.828Z,100129.73
2018-02-07T10:31:49.295Z,100130.55
2018-02-07T10:34:16.784Z,100132.72
2018-02-07T10:36:44.255Z,100136.55
2018-02-07T10:39:11.743Z,100144.70
2018-02-07T10:41:39.212Z,100147.83
2018-02-07T10:44:06.703Z,100146.94
2018-02-07T10:46:34.172Z,100142.44
2018-02-07T10:49:01.649Z,100144.41
2018-02-07T10:51:29.110Z,100145.98
2018-02-07T10:53:56.595Z,100145.77
2018-02-07T10:56:24.057Z,100158.42
2018-02-07T10:58:51.543Z,100153.43
2018-02-07T11:01:19.008Z,100149.09
2018-02-07T11:03:46.487Z,100145.77
2018-02-07T11:06:13.955Z,100153.64
2018-02-07T11:08:41.435Z,100150.62
2018-02-07T11:11:08.899Z,100147.46
2018-02-07T11:13:36.393Z,100153.91
2018-02-07T11:16:03.867Z,100157.13
2018-02-07T11:18:31.355Z,100149.34
2018-02-07T11:20:58.823Z,100159.39
2018-02-07T11:23:26.306Z,100164.38
2018-02-07T11:25:53.775Z,100162.32
2018-02-07T11:28:21.262Z,100171.28
2018-02-07T11:30:48.732Z,100163.66
2018-02-07T11:33:16.218Z,100169.50
2018-02-07T11:35:43.687Z,100164.62
2018-02-07T11:38:11.259Z,100163.09
2018-02-07T11:40:38.714Z,100165.66
2018-02-07T11:43:06.194Z,100160.91
2018-02-07T11:45:33.659Z,100175.74
2018-02-07T11:48:01.138Z,100170.51
2018-02-07T11:50:28.601Z,100166.73
2018-02-07T11:52:56.087Z,100168.84
2018-02-07T11:55:23.561Z,100164.66
2018-02-07T11:57:51.031Z,100167.65
2018-02-07T12:00:18.639Z,100169.63
2018-02-07T12:02:46.105Z,100167.42
2018-02-07T12:05:13.591Z,100173.63
2018-02-07T12:07:41.055Z,100167.65
2018-02-07T12:10:08.536Z,100158.87
2018-02-07T12:12:35.998Z,100155.09
2018-02-07T12:15:03.492Z,100151.39
2018-02-07T12:17:30.955Z,100168.77
2018-02-07T12:19:58.434Z,100165.04
2018-02-07T12:22:25.896Z,100171.23
2018-02-07T12:24:53.375Z,100167.58
2018-02-07T12:27:20.839Z,100167.26
2018-02-07T12:29:48.330Z,100166.13
2018-02-07T12:32:15.791Z,100162.32
2018-02-07T12:34:43.267Z,100156.64
2018-02-07T12:37:10.731Z,100159.88
2018-02-07T12:39:38.211Z,100159.23
2018-02-07T12:42:05.671Z,100159.45
2018-02-07T12:44:33.154Z,100157.34
2018-02-07T12:47:00.675Z,100164.59
2018-02-07T12:49:28.164Z,100161.78
2018-02-07T12:51:55.631Z,100159.59
2018-02-07T12:54:23.119Z,100168.00
2018-02-07T12:56:50.582Z,100164.64
2018-02-07T12:59:18.062Z,100154.05
2018-02-07T13:01:45.522Z,100146.45
2018-02-07T13:04:13.015Z,100150.76
2018-02-07T13:06:41.325Z,100152.69
2018-02-07T13:09:08.806Z,100154.04
2018-02-07T13:11:36.267Z,100159.95
2018-02-07T13:14:03.792Z,100157.98
2018-02-07T13:16:31.255Z,100150.32
2018-02-07T13:18:58.759Z,100146.81
2018-02-07T13:21:26.246Z,100147.93
2018-02-07T13:23:53.702Z,100152.98
2018-02-07T13:26:21.183Z,100153.91
2018-02-07T13:28:48.704Z,100160.58
2018-02-07T13:31:16.178Z,100164.86
2018-02-07T13:33:43.643Z,100165.97
2018-02-07T13:36:11.119Z,100167.03
2018-02-07T13:38:38.600Z,100165.12
2018-02-07T13:41:06.079Z,100163.82
2018-02-07T13:43:33.548Z,100168.18
2018-02-07T13:46:01.030Z,100166.47
2018-02-07T13:48:28.507Z,100170.48
2018-02-07T13:50:55.990Z,100168.48
2018-02-07T13:53:23.474Z,100169.34
2018-02-07T13:55:50.959Z,100174.84
2018-02-07T13:58:18.427Z,100179.61
2018-02-07T14:00:54.354Z,100173.84
2018-02-07T14:03:21.820Z,100178.91
2018-02-07T14:05:49.334Z,100177.07
2018-02-07T14:08:16.819Z,100185.34
2018-02-07T14:10:44.305Z,100184.39
2018-02-07T14:13:11.761Z,100186.77
2018-02-07T14:15:39.324Z,100181.02
2018-02-07T14:18:06.788Z,100181.42
2018-02-07T14:20:34.336Z,100195.83
2018-02-07T14:23:01.791Z,100194.69
2018-02-07T14:25:29.312Z,100192.78
2018-02-07T14:27:57.642Z,100196.53
2018-02-07T14:30:25.127Z,100192.30
2018-02-07T14:32:52.588Z,100186.39
2018-02-07T14:35:20.072Z,100194.11
2018-02-07T14:37:47.547Z,100186.59
2018-02-07T14:40:15.022Z,100189.61
2018-02-07T14:42:42.482Z,100185.26
2018-02-07T14:45:10.014Z,100187.59
2018-02-07T14:47:37.497Z,100194.74
2018-02-07T14:50:04.968Z,100194.73
2018-02-07T14:52:32.462Z,100199.50
2018-02-07T14:54:59.927Z,100199.86
2018-02-07T14:57:29.160Z,100200.06
2018-02-07T14:59:56.619Z,100206.53
2018-02-07T15:02:24.104Z,100208.09
2018-02-07T15:04:51.582Z,100202.92
2018-02-07T15:07:19.059Z,100197.61
2018-02-07T15:09:46.559Z,100200.34
2018-02-07T15:12:14.039Z,100199.73
2018-02-07T15:14:41.518Z,100196.59
2018-02-07T15:17:09.007Z,100199.92
2018-02-07T15:19:36.471Z,100196.39
2018-02-07T15:22:03.954Z,100198.75
2018-02-07T15:24:31.411Z,100196.92
2018-02-07T15:26:58.898Z,100194.97
2018-02-07T15:29:26.358Z,100199.14
2018-02-07T15:31:53.834Z,100201.62
2018-02-07T15:34:21.411Z,100211.42
2018-02-07T15:36:48.982Z,100213.89
2018-02-07T15:39:16.443Z,100218.08
2018-02-07T15:41:43.934Z,100223.20
2018-02-07T15:44:11.402Z,100214.91
2018-02-07T15:46:38.895Z,100216.06
2018-02-07T15:49:06.362Z,100220.41
2018-02-07T15:51:33.842Z,100219.52
2018-02-07T15:54:01.302Z,100222.97
2018-02-07T15:56:28.783Z,100225.39
2018-02-07T15:58:56.251Z,100224.36
2018-02-07T16:01:23.748Z,100223.45
2018-02-07T16:03:51.211Z,100222.70
2018-02-07T16:06:18.698Z,100225.08
2018-02-07T16:08:46.163Z,100228.38
2018-02-07T16:11:13.645Z,100234.08
2018-02-07T16:13:41.106Z,100230.77
2018-02-07T16:16:08.587Z,100232.72
2018-02-07T16:18:36.091Z,100227.67
2018-02-07T16:21:03.568Z,100224.59
2018-02-07T16:23:31.083Z,100228.14
2018-02-07T16:25:58.550Z,100233.66
2018-02-07T16:28:26.045Z,100233.70
2018-02-07T16:30:53.518Z,100228.38
2018-02-07T16:33:21.080Z,100225.45
2018-02-07T16:35:48.563Z,100227.63
2018-02-07T16:38:16.043Z,100223.10
2018-02-07T16:40:43.603Z,100223.83
2018-02-07T16:43:11.088Z,100222.49
2018-02-07T16:45:38.578Z,100241.63
2018-02-07T16:48:06.056Z,100243.67
2018-02-07T16:50:33.559Z,100238.76
2018-02-07T16:53:01.042Z,100242.67
2018-02-07T16:55:28.594Z,100241.80
2018-02-07T16:57:56.122Z,100240.72
2018-02-07T17:00:23.720Z,100244.48
2018-02-07T17:02:51.226Z,100238.56
2018-02-07T17:05:18.691Z,100245.34
2018-02-07T17:07:46.222Z,100251.42
2018-02-07T17:10:13.715Z,100249.39
2018-02-07T17:12:41.261Z,100244.91
2018-02-07T17:15:08.723Z,100245.82
2018-02-07T17:17:36.222Z,100248.51
2018-02-07T17:20:03.887Z,100243.84
2018-02-07T17:22:31.374Z,100242.53
2018-02-07T17:24:58.842Z,100252.33
2018-02-07T17:27:26.378Z,100249.70
2018-02-07T17:29:53.844Z,100249.72
2018-02-07T17:32:21.331Z,100253.18
2018-02-07T17:34:48.795Z,100255.84
2018-02-07T17:37:16.292Z,100260.19
2018-02-07T17:39:43.771Z,100259.38
2018-02-07T17:42:11.264Z,100273.16
2018-02-07T17:44:38.726Z,100277.50
2018-02-07T17:47:06.193Z,100282.06
2018-02-07T17:49:33.850Z,100277.86
2018-02-07T17:52:01.327Z,100280.35
2018-02-07T17:54:28.826Z,100283.59
2018-02-07T17:56:56.299Z,100285.44
2018-02-07T17:59:23.798Z,100291.91
2018-02-07T18:01:51.262Z,100297.40
2018-02-07T18:04:18.748Z,100293.42
2018-02-07T18:06:46.214Z,100298.01
2018-02-07T18:09:13.699Z,100299.65
2018-02-07T18:11:41.181Z,100300.33
2018-02-07T18:14:08.675Z,100299.43
2018-02-07T18:16:36.199Z,100306.31
2018-02-07T18:19:03.682Z,100310.72
2018-02-07T18:21:31.142Z,100317.17
2018-02-07T18:23:58.642Z,100314.78
2018-02-07T18:26:26.104Z,100317.36
2018-02-07T18:28:53.607Z,100319.94
2018-02-07T18:31:21.070Z,100320.59
2018-02-07T18:33:48.560Z,100321.08
2018-02-07T18:36:16.023Z,100321.92
2018-02-07T18:38:43.511Z,100328.70
2018-02-07T18:41:10.974Z,100327.56
2018-02-07T18:43:38.467Z,100336.45
2018-02-07T18:46:05.938Z,100336.09
2018-02-07T18:48:33.428Z,100339.42
2018-02-07T18:51:00.886Z,100336.59
2018-02-07T18:53:28.366Z,100344.70
2018-02-07T18:55:55.828Z,100341.14
2018-02-07T18:58:23.318Z,100347.91
2018-02-07T19:00:50.784Z,100345.95
2018-02-07T19:03:18.272Z,100344.70
2018-02-07T19:05:45.738Z,100351.83
2018-02-07T19:08:13.226Z,100350.74
2018-02-07T19:10:40.699Z,100347.78
2018-02-07T19:13:08.175Z,100353.25
2018-02-07T19:15:35.855Z,100358.35
2018-02-07T19:18:03.319Z,100359.67
2018-02-07T19:20:30.819Z,100360.45
2018-02-07T19:22:58.284Z,100372.20
2018-02-07T19:25:25.775Z,100364.66
2018-02-07T19:27:53.286Z,100368.12
2018-02-07T19:30:20.778Z,100379.87
2018-02-07T19:32:48.251Z,100376.30
2018-02-07T19:35:15.778Z,100379.70
2018-02-07T19:37:43.277Z,100377.35
2018-02-07T19:40:10.765Z,100377.21
2018-02-07T19:42:38.226Z,100376.55
2018-02-07T19:45:05.922Z,100377.94
2018-02-07T19:47:33.390Z,100385.00
2018-02-07T19:50:00.874Z,100387.64
2018-02-07T19:52:28.339Z,100385.91
2018-02-07T19:54:55.822Z,100387.52
2018-02-07T19:57:23.291Z,100381.87
2018-02-07T19:59:50.778Z,100392.91
2018-02-07T20:02:18.242Z,100390.91
2018-02-07T20:04:45.722Z,100394.30
2018-02-07T20:07:13.195Z,100389.34
2018-02-07T20:09:40.683Z,100388.98
2018-02-07T20:12:08.155Z,100391.68
2018-02-07T20:14:35.686Z,100393.66
2018-02-07T20:17:03.130Z,100398.73
2018-02-07T20:19:30.623Z,100407.22
2018-02-07T20:21:58.093Z,100407.53
2018-02-07T20:24:25.597Z,100401.30
2018-02-07T20:26:53.085Z,100400.15
2018-02-07T20:29:20.570Z,100400.75
2018-02-07T20:31:48.115Z,100403.53
2018-02-07T20:34:15.651Z,100400.20
2018-02-07T20:36:43.115Z,100408.89
2018-02-07T20:39:10.593Z,100410.42
2018-02-07T20:41:38.078Z,100408.75
2018-02-07T20:44:05.556Z,100415.73
2018-02-07T20:46:33.047Z,100416.48
2018-02-07T20:49:00.522Z,100423.13
2018-02-07T20:51:28.028Z,100414.66
2018-02-07T20:53:55.550Z,100409.77
2018-02-07T20:56:23.032Z,100414.91
2018-02-07T20:58:50.518Z,100410.02
2018-02-07T21:01:18.038Z,100416.49
2018-02-07T21:03:45.519Z,100415.45
2018-02-07T21:06:13.003Z,100418.22
2018-02-07T21:08:40.461Z,100418.77
2018-02-07T21:11:07.946Z,100420.53
2018-02-07T21:13:35.418Z,100423.20
2018-02-07T21:16:02.952Z,100416.27
2018-02-07T21:18:30.398Z,100422.94
2018-02-07T21:20:57.882Z,100431.87
2018-02-07T21:23:25.355Z,100422.34
2018-02-07T21:25:52.924Z,100431.16
2018-02-07T21:28:20.397Z,100427.22
2018-02-07T21:30:47.890Z,100429.94
2018-02-07T21:33:15.365Z,100435.69
2018-02-07T21:35:42.854Z,100432.58
2018-02-07T21:38:10.335Z,100430.61
2018-02-07T21:40:37.825Z,100435.75
2018-02-07T21:43:05.286Z,100440.92
2018-02-07T21:45:32.770Z,100441.59
2018-02-07T21:48:00.314Z,100442.08
2018-02-07T21:50:27.855Z,100442.19
2018-02-07T21:52:55.323Z,100446.91
2018-02-07T21:55:22.837Z,100439.78
2018-02-07T21:57:50.319Z,100441.55
2018-02-07T22:00:17.815Z,100446.75
2018-02-07T22:02:45.279Z,100443.74
2018-02-07T22:05:12.743Z,100437.62
2018-02-07T22:07:40.240Z,100430.86
2018-02-07T22:10:07.715Z,100433.28
2018-02-07T22:12:35.203Z,100430.86
2018-02-07T22:15:02.669Z,100432.93
2018-02-07T22:17:30.154Z,100432.00
2018-02-07T22:19:57.618Z,100428.91
2018-02-07T22:22:25.103Z,100432.13
2018-02-07T22:24:52.572Z,100437.75
2018-02-07T22:27:20.064Z,100441.20
2018-02-07T22:29:47.530Z,100443.06
2018-02-07T22:32:15.023Z,100445.36
2018-02-07T22:34:42.598Z,100444.33
2018-02-07T22:37:10.086Z,100444.91
2018-02-07T22:39:37.547Z,100450.27
2018-02-07T22:42:05.043Z,100455.32
2018-02-07T22:44:32.507Z,100452.88
2018-02-07T22:46:59.994Z,100458.16
2018-02-07T22:49:27.466Z,100466.89
2018-02-07T22:51:54.955Z,100460.18
2018-02-07T22:54:22.424Z,100461.56
2018-02-07T22:56:49.910Z,100458.92
2018-02-07T22:59:17.418Z,100459.72
2018-02-07T23:01:44.903Z,100462.83
2018-02-07T23:04:12.371Z,100463.47
2018-02-07T23:06:39.847Z,100462.80
2018-02-07T23:09:07.338Z,100470.06
2018-02-07T23:11:34.823Z,100470.52
2018-02-07T23:14:02.326Z,100477.66
2018-02-07T23:16:29.803Z,100477.36
2018-02-07T23:18:57.274Z,100473.83
2018-02-07T23:21:24.758Z,100475.39
2018-02-07T23:23:52.229Z,100476.05
2018-02-07T23:26:19.718Z,100480.60
2018-02-07T23:28:47.191Z,100488.84
2018-02-07T23:31:14.678Z,100487.12
2018-02-07T23:33:42.142Z,100492.59
2018-02-07T23:36:09.615Z,100489.94
2018-02-07T23:38:37.104Z,100485.31
2018-02-07T23:41:04.568Z,100486.13
2018-02-07T23:43:32.046Z,100493.27
2018-02-07T23:45:59.520Z,100477.81
2018-02-07T23:48:27.006Z,100492.77
2018-02-07T23:50:54.481Z,100497.00
2018-02-07T23:53:21.971Z,100493.66
2018-02-07T23:55:49.436Z,100500.03
2018-02-07T23:58:16.923Z,100495.97
